Time;durP1;ratioP1;P1;durP2;ratioP2;P2;SDS_P1;SDS_P2;PMS_P1;PMS_P2;Temp;Humidity;BMP_temperature;BMP_pressure;BME280_temperature;BME280_humidity;BME280_pressure;Samples;Min_cycle;Max_cycle;Signal;HPM_P1;HPM_P2
2021/10/30 00:00:12;;;;;;;12.63;6.97;;;14.40;99.90;;;;;;5037373;28;20501;-83
2021/10/30 00:02:37;;;;;;;8.57;7.70;;;14.50;99.90;;;;;;5039448;28;20105;-82
2021/10/30 00:05:05;;;;;;;9.77;7.65;;;14.50;99.90;;;;;;5046585;28;20113;-83
2021/10/30 00:07:31;;;;;;;10.18;7.43;;;14.50;99.90;;;;;;5029121;28;20041;-83
2021/10/30 00:09:58;;;;;;;11.15;7.60;;;14.60;99.90;;;;;;5048425;28;20021;-84
2021/10/30 00:12:23;;;;;;;13.77;9.20;;;14.60;99.90;;;;;;5050659;28;20394;-83
2021/10/30 00:14:49;;;;;;;12.05;8.82;;;14.60;99.90;;;;;;5047035;28;20028;-83
2021/10/30 00:17:15;;;;;;;11.45;8.73;;;14.60;99.90;;;;;;5032436;28;20032;-82
2021/10/30 00:19:41;;;;;;;11.00;7.90;;;14.60;99.90;;;;;;5049225;28;20024;-83
2021/10/30 00:22:08;;;;;;;8.48;7.47;;;14.70;99.90;;;;;;5049482;28;20485;-82
2021/10/30 00:24:34;;;;;;;14.20;8.43;;;14.70;99.90;;;;;;5049215;28;20132;-82
2021/10/30 00:27:01;;;;;;;10.73;8.38;;;14.60;99.90;;;;;;5048397;28;20021;-83
2021/10/30 00:29:27;;;;;;;12.88;9.07;;;14.50;99.90;;;;;;5047117;28;20087;-83
2021/10/30 00:31:54;;;;;;;15.43;8.40;;;14.50;99.90;;;;;;5033272;28;20001;-82
2021/10/30 00:34:20;;;;;;;14.75;7.57;;;14.50;99.90;;;;;;5032253;28;20427;-83
2021/10/30 00:36:46;;;;;;;12.43;8.93;;;14.60;99.90;;;;;;5028153;28;20033;-82
2021/10/30 00:39:12;;;;;;;11.25;8.45;;;14.60;99.90;;;;;;5046474;28;20113;-88
2021/10/30 00:41:37;;;;;;;15.05;9.13;;;14.60;99.90;;;;;;5029327;28;20033;-84
2021/10/30 00:44:08;;;;;;;24.15;13.20;;;14.70;99.90;;;;;;5044103;28;20379;-84
2021/10/30 00:46:34;;;;;;;14.52;8.88;;;14.70;99.90;;;;;;5047590;28;20103;-83
2021/10/30 00:49:01;;;;;;;17.35;10.00;;;14.50;99.90;;;;;;5037676;28;20112;-82
2021/10/30 00:51:30;;;;;;;13.00;9.13;;;14.40;99.90;;;;;;5045139;28;20024;-82
2021/10/30 00:53:56;;;;;;;11.70;9.35;;;14.40;99.90;;;;;;5043022;28;20060;-82
2021/10/30 00:56:22;;;;;;;16.92;8.93;;;14.40;99.90;;;;;;5030002;28;20052;-82
2021/10/30 00:58:50;;;;;;;11.43;8.43;;;14.40;99.90;;;;;;5048741;28;20021;-82
2021/10/30 01:01:15;;;;;;;11.30;9.52;;;14.30;99.90;;;;;;5046237;28;20037;-82
2021/10/30 01:03:43;;;;;;;14.90;9.35;;;14.30;99.90;;;;;;5041229;28;20028;-82
2021/10/30 01:06:08;;;;;;;12.60;9.10;;;14.30;99.90;;;;;;5046507;28;20431;-83
2021/10/30 01:08:34;;;;;;;12.70;8.60;;;14.40;99.90;;;;;;5044181;28;20025;-83
2021/10/30 01:11:00;;;;;;;11.88;8.60;;;14.40;99.90;;;;;;5030159;28;20401;-81
2021/10/30 01:13:27;;;;;;;10.02;8.20;;;14.50;99.90;;;;;;5047868;28;20112;-82
2021/10/30 01:15:53;;;;;;;10.32;8.55;;;14.50;99.90;;;;;;5029595;28;20024;-83
2021/10/30 01:18:18;;;;;;;8.57;7.20;;;14.50;99.90;;;;;;5050441;28;20021;-83
2021/10/30 01:20:44;;;;;;;10.52;7.88;;;14.60;99.90;;;;;;5048523;28;20079;-83
2021/10/30 01:23:10;;;;;;;10.00;7.43;;;14.50;99.90;;;;;;5048958;28;20064;-83
2021/10/30 01:25:38;;;;;;;11.15;7.35;;;14.60;99.90;;;;;;5028153;28;20033;-84
2021/10/30 01:28:03;;;;;;;8.48;7.68;;;14.50;99.90;;;;;;5043539;28;20040;-82
2021/10/30 01:30:29;;;;;;;9.88;7.82;;;14.50;99.90;;;;;;5027335;28;20021;-83
2021/10/30 01:33:00;;;;;;;14.60;9.30;;;14.50;99.90;;;;;;5030829;28;20025;-84
2021/10/30 01:35:30;;;;;;;10.75;7.72;;;14.50;99.90;;;;;;5031152;28;20025;-82
2021/10/30 01:37:57;;;;;;;10.50;7.93;;;14.50;99.90;;;;;;5047787;28;20020;-83
2021/10/30 01:40:23;;;;;;;14.70;8.15;;;14.50;99.90;;;;;;5046207;28;20156;-83
2021/10/30 01:42:57;;;;;;;17.48;9.75;;;14.50;99.90;;;;;;5031293;28;20029;-84
2021/10/30 01:45:23;;;;;;;12.88;9.10;;;14.50;99.90;;;;;;5032297;28;20124;-84
2021/10/30 01:47:50;;;;;;;15.73;8.75;;;14.50;99.90;;;;;;5048305;28;20060;-83
2021/10/30 01:50:16;;;;;;;15.77;8.63;;;14.40;99.90;;;;;;5042561;28;20538;-83
2021/10/30 01:52:42;;;;;;;11.43;8.02;;;14.40;99.90;;;;;;5047054;28;20021;-84
2021/10/30 01:55:12;;;;;;;16.02;9.38;;;14.40;99.90;;;;;;5039574;28;20025;-82
2021/10/30 01:57:38;;;;;;;13.73;9.70;;;14.40;99.90;;;;;;5028883;28;20025;-83
2021/10/30 02:00:07;;;;;;;13.73;9.13;;;14.40;99.90;;;;;;5025860;28;20367;-84
2021/10/30 02:02:33;;;;;;;15.85;9.05;;;14.40;99.90;;;;;;5028809;28;20036;-83
2021/10/30 02:05:00;;;;;;;13.60;9.85;;;14.30;99.90;;;;;;5045165;28;20048;-83
2021/10/30 02:07:26;;;;;;;9.48;8.32;;;14.30;99.90;;;;;;5032635;28;20048;-83
2021/10/30 02:09:52;;;;;;;10.38;8.98;;;14.40;99.90;;;;;;5041118;28;20389;-83
2021/10/30 02:12:18;;;;;;;12.38;8.25;;;14.40;99.90;;;;;;5051678;28;20104;-85
2021/10/30 02:14:43;;;;;;;15.43;7.95;;;14.40;99.90;;;;;;5049622;28;20092;-83
2021/10/30 02:17:10;;;;;;;14.30;9.98;;;14.40;99.90;;;;;;5047539;28;20024;-84
2021/10/30 02:19:36;;;;;;;13.45;10.02;;;14.40;99.90;;;;;;5046172;28;20043;-83
2021/10/30 02:22:01;;;;;;;14.32;8.73;;;14.30;99.90;;;;;;5049812;28;20021;-83
2021/10/30 02:24:27;;;;;;;13.13;9.10;;;14.40;99.90;;;;;;5045998;28;20539;-83
2021/10/30 02:26:53;;;;;;;14.18;9.23;;;14.30;99.90;;;;;;5048859;28;20035;-86
2021/10/30 02:29:19;;;;;;;15.05;10.02;;;14.30;99.90;;;;;;5034131;28;20025;-83
2021/10/30 02:31:45;;;;;;;12.18;9.73;;;14.40;99.90;;;;;;5054237;28;20021;-84
2021/10/30 02:34:11;;;;;;;15.55;9.65;;;14.20;99.90;;;;;;5031200;28;20064;-86
2021/10/30 02:36:36;;;;;;;12.38;8.15;;;14.20;99.90;;;;;;5048270;28;20102;-86
2021/10/30 02:39:02;;;;;;;14.32;10.65;;;14.20;99.90;;;;;;5036087;28;20025;-84
2021/10/30 02:41:29;;;;;;;13.05;9.43;;;14.20;99.90;;;;;;5033381;28;20021;-84
2021/10/30 02:43:54;;;;;;;14.55;8.70;;;14.30;99.90;;;;;;5047415;28;20040;-84
2021/10/30 02:46:20;;;;;;;15.82;9.30;;;14.40;99.90;;;;;;5029701;28;20013;-85
2021/10/30 02:48:46;;;;;;;12.48;9.57;;;14.30;99.90;;;;;;5047158;28;20781;-83
2021/10/30 02:51:11;;;;;;;16.45;9.50;;;14.40;99.90;;;;;;5048527;28;20466;-83
2021/10/30 02:53:37;;;;;;;19.08;11.10;;;14.30;99.90;;;;;;5049433;28;20425;-83
2021/10/30 02:56:03;;;;;;;15.52;10.63;;;14.40;99.90;;;;;;5052327;28;20477;-84
2021/10/30 02:58:29;;;;;;;11.60;9.38;;;14.40;99.90;;;;;;5034901;28;20013;-82
2021/10/30 03:00:55;;;;;;;10.77;9.40;;;14.30;99.90;;;;;;5032494;28;20033;-82
2021/10/30 03:03:20;;;;;;;18.15;10.55;;;14.40;99.90;;;;;;5031747;28;20021;-83
2021/10/30 03:05:46;;;;;;;18.98;12.07;;;14.40;99.90;;;;;;5044670;28;20033;-82
2021/10/30 03:08:12;;;;;;;18.92;11.45;;;14.40;99.90;;;;;;5040313;28;20425;-82
2021/10/30 03:10:37;;;;;;;13.07;8.95;;;14.40;99.90;;;;;;5046186;28;20538;-82
2021/10/30 03:13:03;;;;;;;15.07;9.35;;;14.50;99.90;;;;;;5044642;28;20029;-83
2021/10/30 03:15:29;;;;;;;15.82;10.38;;;14.40;99.90;;;;;;5029484;28;20028;-83
2021/10/30 03:17:54;;;;;;;19.58;10.65;;;14.40;99.90;;;;;;5047274;28;20025;-84
2021/10/30 03:20:20;;;;;;;15.45;9.52;;;14.40;99.90;;;;;;5041135;28;20029;-82
2021/10/30 03:22:46;;;;;;;14.85;10.07;;;14.40;99.90;;;;;;5046981;28;20032;-83
2021/10/30 03:25:12;;;;;;;14.23;10.40;;;14.40;99.90;;;;;;5029629;28;20024;-83
2021/10/30 03:27:38;;;;;;;19.00;11.45;;;14.40;99.90;;;;;;5047252;28;20025;-83
2021/10/30 03:30:08;;;;;;;16.20;10.48;;;14.40;99.90;;;;;;5045622;28;20513;-83
2021/10/30 03:32:33;;;;;;;17.00;10.85;;;14.40;99.90;;;;;;5032471;28;20128;-84
2021/10/30 03:34:59;;;;;;;14.55;10.63;;;14.40;99.90;;;;;;5043863;28;20111;-83
2021/10/30 03:37:25;;;;;;;15.60;12.05;;;14.40;99.90;;;;;;5047794;28;20397;-82
2021/10/30 03:39:54;;;;;;;16.50;11.55;;;14.40;99.90;;;;;;5027656;28;20068;-82
2021/10/30 03:42:22;;;;;;;14.05;10.60;;;14.50;99.90;;;;;;5041801;28;20049;-84
2021/10/30 03:44:48;;;;;;;14.40;9.75;;;14.50;99.90;;;;;;5046396;28;20417;-82
2021/10/30 03:47:14;;;;;;;14.60;9.63;;;14.40;99.90;;;;;;5049376;28;20040;-83
2021/10/30 03:49:40;;;;;;;15.80;11.27;;;14.40;99.90;;;;;;5043927;28;20094;-83
2021/10/30 03:52:06;;;;;;;14.98;10.38;;;14.40;99.90;;;;;;5047905;28;20041;-83
2021/10/30 03:54:32;;;;;;;25.95;11.85;;;14.30;99.90;;;;;;5049771;28;20024;-83
2021/10/30 03:56:58;;;;;;;14.82;10.43;;;14.30;99.90;;;;;;5040159;28;20038;-83
2021/10/30 03:59:24;;;;;;;27.08;11.23;;;14.30;99.90;;;;;;5027477;28;20024;-84
2021/10/30 04:01:50;;;;;;;18.77;10.60;;;14.20;99.90;;;;;;5033055;28;20492;-85
2021/10/30 04:04:16;;;;;;;16.65;10.20;;;14.20;99.90;;;;;;5039896;28;20051;-84
2021/10/30 04:06:42;;;;;;;13.00;9.73;;;14.30;99.90;;;;;;5047365;28;20385;-84
2021/10/30 04:09:08;;;;;;;12.45;8.93;;;14.20;99.90;;;;;;5033113;28;20017;-79
2021/10/30 04:11:34;;;;;;;14.00;9.30;;;14.20;99.90;;;;;;5027912;28;20372;-81
2021/10/30 04:14:00;;;;;;;14.77;9.68;;;14.10;99.90;;;;;;5047718;28;20487;-82
2021/10/30 04:16:26;;;;;;;20.48;11.07;;;14.10;99.90;;;;;;5042052;28;20513;-80
2021/10/30 04:18:52;;;;;;;14.65;10.13;;;14.10;99.90;;;;;;5045410;28;20020;-81
2021/10/30 04:21:17;;;;;;;11.48;8.93;;;14.10;99.90;;;;;;5049325;28;20029;-82
2021/10/30 04:23:43;;;;;;;14.55;10.82;;;14.00;99.90;;;;;;5043098;28;20033;-82
2021/10/30 04:26:09;;;;;;;16.98;9.98;;;14.10;99.90;;;;;;5041741;28;20518;-81
2021/10/30 04:28:35;;;;;;;15.02;10.38;;;14.10;99.90;;;;;;5031812;28;20436;-81
2021/10/30 04:31:08;;;;;;;13.07;9.77;;;14.10;99.90;;;;;;5042799;28;20029;-82
2021/10/30 04:33:35;;;;;;;13.70;8.82;;;14.00;99.90;;;;;;5045210;28;20420;-82
2021/10/30 04:36:13;;;;;;;15.10;10.25;;;13.90;99.90;;;;;;5046826;28;20021;-81
2021/10/30 04:38:39;;;;;;;20.30;10.52;;;14.00;99.90;;;;;;5050020;28;20017;-81
2021/10/30 04:41:05;;;;;;;13.93;9.98;;;14.00;99.90;;;;;;5044296;28;20021;-82
2021/10/30 04:43:30;;;;;;;16.73;10.23;;;14.00;99.90;;;;;;5048962;28;20029;-82
2021/10/30 04:45:56;;;;;;;17.35;11.07;;;14.00;99.90;;;;;;5046460;28;20482;-82
2021/10/30 04:48:22;;;;;;;14.80;9.98;;;14.00;99.90;;;;;;5032891;28;20103;-83
2021/10/30 04:50:47;;;;;;;15.63;10.82;;;14.00;99.90;;;;;;5047224;28;20420;-83
2021/10/30 04:53:13;;;;;;;18.75;12.15;;;14.00;99.90;;;;;;5023238;28;20147;-82
2021/10/30 04:55:39;;;;;;;15.45;10.93;;;14.00;99.90;;;;;;5045977;28;20389;-82
2021/10/30 04:58:05;;;;;;;22.17;12.30;;;14.00;99.90;;;;;;5050722;28;20032;-82
2021/10/30 05:00:31;;;;;;;15.75;11.25;;;14.10;99.90;;;;;;5046702;28;20028;-82
2021/10/30 05:02:56;;;;;;;21.52;14.43;;;14.10;99.90;;;;;;5049718;28;20035;-82
2021/10/30 05:05:22;;;;;;;19.27;12.60;;;14.20;99.90;;;;;;5031018;28;20684;-82
2021/10/30 05:07:48;;;;;;;18.35;11.18;;;14.20;99.90;;;;;;5047120;28;20041;-82
2021/10/30 05:10:14;;;;;;;20.30;12.68;;;14.20;99.90;;;;;;5051329;28;20025;-81
2021/10/30 05:12:40;;;;;;;19.77;13.30;;;14.20;99.90;;;;;;5051227;28;20017;-81
2021/10/30 05:15:06;;;;;;;15.35;11.82;;;14.20;99.90;;;;;;5051203;28;20435;-81
2021/10/30 05:17:32;;;;;;;17.15;11.93;;;14.20;99.90;;;;;;5050777;28;20029;-81
2021/10/30 05:19:57;;;;;;;18.50;13.05;;;14.10;99.90;;;;;;5051492;28;20485;-80
2021/10/30 05:22:23;;;;;;;27.33;13.18;;;14.10;99.90;;;;;;5050714;28;20043;-80
2021/10/30 05:24:49;;;;;;;16.58;13.02;;;14.20;99.90;;;;;;5048388;28;20536;-80
2021/10/30 05:27:15;;;;;;;19.05;13.80;;;14.20;99.90;;;;;;5032535;28;20500;-80
2021/10/30 05:29:41;;;;;;;20.70;12.60;;;14.20;99.90;;;;;;5049782;28;20044;-80
2021/10/30 05:32:07;;;;;;;20.08;13.95;;;14.30;99.90;;;;;;5051085;28;20072;-80
2021/10/30 05:34:33;;;;;;;21.25;13.60;;;14.30;99.90;;;;;;5051128;28;20021;-81
2021/10/30 05:36:59;;;;;;;22.58;12.68;;;14.30;99.90;;;;;;5050811;28;20036;-81
2021/10/30 05:39:24;;;;;;;14.63;11.32;;;14.20;99.90;;;;;;5055031;28;20027;-81
2021/10/30 05:41:50;;;;;;;23.40;15.45;;;14.20;99.90;;;;;;5054803;28;20025;-80
2021/10/30 05:44:16;;;;;;;24.77;16.30;;;14.00;99.90;;;;;;5055110;28;20040;-81
2021/10/30 05:46:42;;;;;;;19.92;14.65;;;14.10;99.90;;;;;;5053386;28;20017;-80
2021/10/30 05:49:09;;;;;;;20.63;13.70;;;14.10;99.90;;;;;;5054707;28;20511;-80
2021/10/30 05:51:35;;;;;;;15.13;10.93;;;14.10;99.90;;;;;;5055663;28;20462;-81
2021/10/30 05:54:01;;;;;;;11.98;10.75;;;14.00;99.90;;;;;;5061773;28;20032;-81
2021/10/30 05:56:27;;;;;;;15.15;11.38;;;14.00;99.90;;;;;;5053992;28;20025;-81
2021/10/30 05:58:53;;;;;;;15.00;11.43;;;13.90;99.90;;;;;;5052223;28;20032;-81
2021/10/30 06:01:19;;;;;;;20.13;11.20;;;13.90;99.90;;;;;;5054504;28;20070;-80
2021/10/30 06:03:45;;;;;;;17.48;11.07;;;14.00;99.90;;;;;;5055394;28;20029;-81
2021/10/30 06:06:12;;;;;;;15.70;11.10;;;14.00;99.90;;;;;;5053556;28;20040;-82
2021/10/30 06:08:38;;;;;;;13.10;10.77;;;13.90;99.90;;;;;;5055331;28;20116;-81
2021/10/30 06:11:03;;;;;;;15.60;12.13;;;13.90;99.90;;;;;;5037373;28;20167;-82
2021/10/30 06:13:29;;;;;;;15.55;11.65;;;13.80;99.90;;;;;;5055724;28;20025;-82
2021/10/30 06:15:55;;;;;;;13.45;10.35;;;13.90;99.90;;;;;;5060297;28;20075;-81
2021/10/30 06:18:20;;;;;;;15.45;10.70;;;13.90;99.90;;;;;;5051375;28;20420;-80
2021/10/30 06:20:46;;;;;;;16.52;11.15;;;13.90;99.90;;;;;;5030200;28;20021;-81
2021/10/30 06:23:13;;;;;;;17.65;12.57;;;14.00;99.90;;;;;;5055486;28;20028;-82
2021/10/30 06:25:40;;;;;;;21.17;13.35;;;14.00;99.90;;;;;;5054881;28;20520;-81
2021/10/30 06:28:06;;;;;;;20.73;13.07;;;13.90;99.90;;;;;;5055091;28;20052;-80
2021/10/30 06:30:32;;;;;;;20.77;11.70;;;13.90;99.90;;;;;;5055339;28;20366;-80
2021/10/30 06:32:57;;;;;;;17.08;13.25;;;13.90;99.90;;;;;;5054912;28;20123;-80
2021/10/30 06:35:23;;;;;;;17.40;12.63;;;14.00;99.90;;;;;;5036274;28;20029;-81
2021/10/30 06:37:49;;;;;;;19.92;13.85;;;13.90;99.90;;;;;;5036708;28;20112;-81
2021/10/30 06:40:14;;;;;;;17.70;12.90;;;13.80;99.90;;;;;;5055470;28;20025;-82
2021/10/30 06:42:40;;;;;;;19.35;12.15;;;13.80;99.90;;;;;;5055010;28;20033;-82
2021/10/30 06:45:07;;;;;;;19.48;13.55;;;13.70;99.90;;;;;;5057289;28;20020;-80
2021/10/30 06:47:33;;;;;;;15.80;11.40;;;13.80;99.90;;;;;;5053852;28;20040;-81
2021/10/30 06:50:00;;;;;;;18.92;13.60;;;13.80;99.90;;;;;;5054385;28;20147;-81
2021/10/30 06:52:36;;;;;;;15.63;11.30;;;13.80;99.90;;;;;;5054893;28;20074;-81
2021/10/30 06:55:02;;;;;;;16.90;11.77;;;13.70;99.90;;;;;;5054950;28;20499;-82
2021/10/30 06:57:29;;;;;;;18.05;11.82;;;13.70;99.90;;;;;;5054541;28;20025;-81
2021/10/30 06:59:54;;;;;;;20.70;13.82;;;13.70;99.90;;;;;;5036571;28;20025;-82
2021/10/30 07:02:20;;;;;;;17.88;13.23;;;13.80;99.90;;;;;;5037121;28;20075;-82
2021/10/30 07:04:46;;;;;;;19.15;12.32;;;13.80;99.90;;;;;;5054140;28;20047;-82
2021/10/30 07:07:11;;;;;;;16.38;11.23;;;13.80;99.90;;;;;;5052004;28;20500;-82
2021/10/30 07:09:37;;;;;;;15.63;10.13;;;13.80;99.90;;;;;;5036339;28;20457;-81
2021/10/30 07:12:03;;;;;;;16.75;10.10;;;13.80;99.90;;;;;;5036758;28;20382;-81
2021/10/30 07:14:29;;;;;;;13.93;9.90;;;13.90;99.90;;;;;;5054432;28;20025;-82
2021/10/30 07:16:54;;;;;;;13.77;9.68;;;14.00;99.90;;;;;;5059128;28;20024;-82
2021/10/30 07:19:20;;;;;;;15.23;10.10;;;13.90;99.90;;;;;;5053306;28;20033;-81
2021/10/30 07:21:45;;;;;;;15.18;10.00;;;13.90;99.90;;;;;;5053295;28;20496;-81
2021/10/30 07:24:11;;;;;;;10.43;8.45;;;13.90;99.90;;;;;;5054536;28;20096;-80
2021/10/30 07:26:37;;;;;;;11.77;8.95;;;13.90;99.90;;;;;;5058726;28;20036;-82
2021/10/30 07:29:03;;;;;;;11.10;9.10;;;13.90;99.90;;;;;;5057588;28;20037;-82
2021/10/30 07:31:28;;;;;;;10.52;7.80;;;14.00;99.90;;;;;;5050035;28;20095;-82
2021/10/30 07:33:54;;;;;;;10.48;9.00;;;13.90;99.90;;;;;;5053600;28;20032;-83
2021/10/30 07:36:20;;;;;;;10.05;8.98;;;13.90;99.90;;;;;;5053891;28;20072;-81
2021/10/30 07:38:45;;;;;;;13.95;9.45;;;13.90;99.90;;;;;;5036196;28;20044;-80
2021/10/30 07:41:11;;;;;;;19.58;11.10;;;13.90;99.90;;;;;;5035853;28;20112;-80
2021/10/30 07:43:37;;;;;;;14.27;10.25;;;13.90;99.90;;;;;;5052411;28;20041;-82
2021/10/30 07:46:02;;;;;;;12.40;8.75;;;13.90;99.90;;;;;;5052878;28;20014;-82
2021/10/30 07:48:28;;;;;;;10.05;8.43;;;13.90;99.90;;;;;;5035158;28;20500;-81
2021/10/30 07:50:54;;;;;;;10.65;8.10;;;13.90;99.90;;;;;;5053489;28;20025;-82
2021/10/30 07:53:19;;;;;;;11.82;8.15;;;13.80;99.90;;;;;;5035823;28;20120;-79
2021/10/30 07:55:47;;;;;;;15.70;8.57;;;13.90;99.90;;;;;;5053303;28;20045;-80
2021/10/30 07:58:13;;;;;;;10.82;7.63;;;13.90;99.90;;;;;;5053239;28;20021;-79
2021/10/30 08:00:38;;;;;;;10.95;7.85;;;13.80;99.90;;;;;;5050333;28;20013;-80
2021/10/30 08:03:04;;;;;;;12.30;8.32;;;13.80;99.90;;;;;;5052331;28;20037;-82
2021/10/30 08:05:30;;;;;;;11.23;7.95;;;13.90;99.90;;;;;;5052504;28;20033;-80
2021/10/30 08:07:55;;;;;;;8.57;7.68;;;13.80;99.90;;;;;;5053634;28;20069;-81
2021/10/30 08:10:26;;;;;;;11.10;7.65;;;13.80;99.90;;;;;;5053284;28;20028;-81
2021/10/30 08:12:52;;;;;;;8.13;7.20;;;13.80;99.90;;;;;;5035867;28;20032;-80
2021/10/30 08:15:18;;;;;;;11.27;7.78;;;13.90;99.90;;;;;;5061153;28;20020;-81
2021/10/30 08:17:44;;;;;;;9.95;7.22;;;13.80;99.90;;;;;;5038840;28;20406;-81
2021/10/30 08:20:10;;;;;;;9.80;8.80;;;13.90;99.90;;;;;;5053145;28;20029;-81
2021/10/30 08:22:36;;;;;;;10.32;6.82;;;13.80;99.90;;;;;;5052990;28;20469;-81
2021/10/30 08:25:02;;;;;;;10.05;8.20;;;13.80;99.90;;;;;;5053154;28;20012;-81
2021/10/30 08:27:29;;;;;;;11.70;9.43;;;13.80;99.90;;;;;;5052743;28;20057;-82
2021/10/30 08:29:54;;;;;;;13.65;9.52;;;13.90;99.90;;;;;;5052227;28;20048;-81
2021/10/30 08:32:21;;;;;;;11.10;8.98;;;13.80;99.90;;;;;;5050738;28;20059;-84
2021/10/30 08:34:47;;;;;;;10.00;7.90;;;13.90;99.90;;;;;;5052503;28;20066;-82
2021/10/30 08:37:14;;;;;;;13.00;10.63;;;13.80;99.90;;;;;;5051656;28;20033;-81
2021/10/30 08:39:40;;;;;;;12.23;8.90;;;13.90;99.90;;;;;;5052151;28;20024;-83
2021/10/30 08:42:06;;;;;;;13.93;8.68;;;13.90;99.90;;;;;;5052459;28;20021;-82
2021/10/30 08:44:37;;;;;;;11.80;8.10;;;13.90;99.90;;;;;;5053028;28;20035;-83
2021/10/30 08:47:04;;;;;;;10.60;7.35;;;13.90;99.90;;;;;;5055016;28;20095;-83
2021/10/30 08:49:30;;;;;;;8.93;6.30;;;13.90;99.90;;;;;;5052923;28;20025;-82
2021/10/30 08:51:56;;;;;;;11.68;7.40;;;14.00;99.90;;;;;;5034002;28;20021;-83
2021/10/30 08:54:21;;;;;;;11.23;7.75;;;14.00;99.90;;;;;;5052440;28;20040;-82
2021/10/30 08:56:47;;;;;;;9.35;7.57;;;14.00;99.90;;;;;;5034412;28;20041;-81
2021/10/30 08:59:14;;;;;;;9.93;7.03;;;14.00;99.90;;;;;;5052480;28;20036;-82
2021/10/30 09:01:50;;;;;;;8.73;7.35;;;14.00;99.90;;;;;;5051835;28;20021;-81
2021/10/30 09:04:17;;;;;;;10.48;7.20;;;14.00;99.90;;;;;;5052316;28;20052;-81
2021/10/30 09:07:01;;;;;;;7.88;7.07;;;14.00;99.90;;;;;;5051395;28;20032;-82
2021/10/30 09:09:28;;;;;;;8.73;6.78;;;14.00;99.90;;;;;;5052146;28;20393;-82
2021/10/30 09:11:58;;;;;;;9.48;6.65;;;14.20;99.90;;;;;;5052107;28;20525;-83
2021/10/30 09:14:26;;;;;;;11.25;6.80;;;14.20;99.90;;;;;;5051946;28;20560;-82
2021/10/30 09:17:12;;;;;;;10.93;7.13;;;14.10;99.90;;;;;;5052083;28;20027;-79
2021/10/30 09:19:52;;;;;;;9.68;7.43;;;14.10;99.90;;;;;;5052540;28;20024;-80
2021/10/30 09:22:20;;;;;;;10.55;7.13;;;14.20;99.90;;;;;;5052095;28;20545;-82
2021/10/30 09:25:04;;;;;;;9.23;6.72;;;14.20;99.90;;;;;;5051551;28;20104;-80
2021/10/30 09:28:02;;;;;;;7.80;6.55;;;14.20;99.90;;;;;;5051684;28;20029;-81
2021/10/30 09:30:32;;;;;;;7.50;6.60;;;14.20;99.90;;;;;;5008150;28;20040;-81
2021/10/30 09:33:02;;;;;;;8.38;6.38;;;14.20;99.90;;;;;;5051881;28;20044;-82
2021/10/30 09:35:38;;;;;;;10.20;6.72;;;14.20;99.90;;;;;;5052072;28;20029;-81
2021/10/30 09:38:04;;;;;;;12.50;7.65;;;14.20;99.90;;;;;;5052047;28;20040;-81
2021/10/30 09:40:33;;;;;;;8.88;6.70;;;14.20;99.90;;;;;;5051788;28;20021;-81
2021/10/30 09:43:14;;;;;;;10.15;6.82;;;14.20;99.90;;;;;;5034108;28;20033;-85
2021/10/30 09:45:55;;;;;;;8.75;7.10;;;14.20;99.90;;;;;;5054408;28;20051;-80
2021/10/30 09:48:24;;;;;;;8.82;6.03;;;14.30;99.90;;;;;;5034199;28;20122;-80
2021/10/30 09:50:58;;;;;;;11.15;7.00;;;14.30;99.90;;;;;;5052031;28;20021;-81
2021/10/30 09:53:35;;;;;;;10.32;6.93;;;14.20;99.90;;;;;;5051390;28;20028;-79
2021/10/30 09:56:11;;;;;;;10.57;6.47;;;14.30;99.90;;;;;;5051727;28;20416;-81
2021/10/30 09:58:44;;;;;;;9.98;6.18;;;14.20;99.90;;;;;;5051606;28;20025;-82
2021/10/30 10:01:18;;;;;;;7.78;6.65;;;14.20;99.90;;;;;;5051338;28;20045;-82
2021/10/30 10:03:50;;;;;;;9.75;6.90;;;14.20;99.90;;;;;;5035572;28;20089;-81
2021/10/30 10:06:23;;;;;;;8.00;6.60;;;14.20;99.90;;;;;;5050800;28;20025;-81
2021/10/30 10:08:50;;;;;;;11.57;6.28;;;14.30;99.90;;;;;;5051950;28;20055;-81
2021/10/30 10:11:18;;;;;;;7.88;7.07;;;14.30;99.90;;;;;;5051750;28;20029;-79
2021/10/30 10:13:46;;;;;;;9.05;7.30;;;14.30;99.90;;;;;;5051562;28;20021;-82
2021/10/30 10:16:19;;;;;;;7.63;6.28;;;14.30;99.90;;;;;;5051625;28;20029;-81
2021/10/30 10:18:46;;;;;;;7.55;6.22;;;14.20;99.90;;;;;;5051441;28;20057;-81
2021/10/30 10:21:16;;;;;;;6.55;5.57;;;14.20;99.90;;;;;;5051417;28;20029;-80
2021/10/30 10:23:42;;;;;;;8.32;5.93;;;14.30;99.90;;;;;;5053285;28;20031;-80
2021/10/30 10:26:09;;;;;;;8.02;5.95;;;14.30;99.90;;;;;;5054579;28;20025;-80
2021/10/30 10:28:38;;;;;;;7.30;5.10;;;14.40;99.90;;;;;;5055985;28;20116;-81
2021/10/30 10:31:10;;;;;;;6.72;6.00;;;14.30;99.90;;;;;;5061368;28;20093;-84
2021/10/30 10:33:36;;;;;;;9.40;5.97;;;14.30;99.90;;;;;;5054374;28;20076;-81
2021/10/30 10:36:14;;;;;;;6.57;5.68;;;14.30;99.90;;;;;;5031503;28;20315;-80
2021/10/30 10:38:58;;;;;;;16.17;9.82;;;14.30;99.90;;;;;;5047023;28;20032;-81
2021/10/30 10:41:48;;;;;;;10.15;8.98;;;14.30;99.90;;;;;;5053832;28;20020;-81
2021/10/30 10:44:36;;;;;;;15.60;10.80;;;14.40;99.90;;;;;;5053543;28;20108;-80
2021/10/30 10:47:04;;;;;;;15.48;13.90;;;14.60;99.90;;;;;;5053430;28;20033;-80
2021/10/30 10:49:49;;;;;;;7.47;5.55;;;14.50;99.90;;;;;;5052359;28;20025;-81
2021/10/30 10:52:19;;;;;;;6.38;5.07;;;14.50;99.90;;;;;;5051273;28;20041;-82
2021/10/30 10:55:03;;;;;;;6.47;4.35;;;14.60;99.90;;;;;;5054124;28;20024;-81
2021/10/30 10:57:36;;;;;;;7.40;4.07;;;14.50;99.90;;;;;;5052734;28;20029;-80
2021/10/30 11:00:07;;;;;;;;;;;14.60;99.90;;;;;;5054614;28;20024;-79
2021/10/30 11:02:36;;;;;;;6.68;4.43;;;14.60;99.90;;;;;;5046279;28;20379;-81
2021/10/30 11:05:08;;;;;;;4.57;3.60;;;14.70;99.90;;;;;;5054325;28;20032;-81
2021/10/30 11:07:41;;;;;;;4.60;4.20;;;14.60;99.90;;;;;;5052651;28;20129;-82
2021/10/30 11:10:16;;;;;;;3.83;3.53;;;14.50;99.90;;;;;;5051758;28;20023;-81
2021/10/30 11:13:01;;;;;;;6.82;4.00;;;14.60;99.90;;;;;;5053912;28;20049;-82
2021/10/30 11:15:39;;;;;;;7.68;5.47;;;14.60;99.90;;;;;;5049736;28;20465;-82
2021/10/30 11:18:11;;;;;;;11.20;5.85;;;14.60;99.90;;;;;;5051244;28;20029;-82
2021/10/30 11:21:04;;;;;;;6.25;4.68;;;14.60;99.90;;;;;;5053262;28;20021;-83
2021/10/30 11:23:31;;;;;;;6.88;5.05;;;14.70;99.90;;;;;;5053228;28;20025;-82
2021/10/30 11:26:07;;;;;;;7.90;5.15;;;14.70;99.90;;;;;;5033947;28;20397;-81
2021/10/30 11:28:34;;;;;;;5.97;5.38;;;14.80;99.90;;;;;;5051023;28;20108;-81
2021/10/30 11:31:14;;;;;;;5.80;3.80;;;14.80;99.90;;;;;;5051451;28;20499;-81
2021/10/30 11:33:40;;;;;;;4.85;4.20;;;14.80;99.90;;;;;;5052465;28;20103;-81
2021/10/30 11:36:09;;;;;;;4.85;4.35;;;14.90;99.90;;;;;;5048009;28;20100;-82
2021/10/30 11:38:38;;;;;;;6.28;4.60;;;14.90;99.90;;;;;;5034959;28;20493;-82
2021/10/30 11:41:10;;;;;;;5.07;3.85;;;15.00;99.90;;;;;;5033445;28;20037;-84
2021/10/30 11:43:37;;;;;;;4.30;3.50;;;15.00;99.90;;;;;;5051253;28;20485;-82
2021/10/30 11:46:13;;;;;;;7.68;3.35;;;14.90;99.90;;;;;;5052844;28;20029;-85
2021/10/30 11:48:45;;;;;;;8.88;5.93;;;14.90;99.90;;;;;;5033224;28;20087;-84
2021/10/30 11:51:12;;;;;;;4.35;3.67;;;15.00;99.90;;;;;;5053026;28;20045;-83
2021/10/30 11:53:39;;;;;;;7.35;3.83;;;15.00;99.90;;;;;;5034843;28;20033;-83
2021/10/30 11:56:09;;;;;;;3.45;2.97;;;15.10;99.90;;;;;;5035030;28;20029;-84
2021/10/30 11:58:53;;;;;;;6.38;3.53;;;15.10;99.90;;;;;;5039785;28;20424;-83
2021/10/30 12:01:40;;;;;;;5.57;4.40;;;15.20;99.90;;;;;;5035144;28;20079;-87
2021/10/30 12:04:18;;;;;;;10.63;7.68;;;15.30;99.90;;;;;;5052933;28;20377;-84
2021/10/30 12:06:47;;;;;;;9.27;6.40;;;15.40;99.90;;;;;;5046031;28;20055;-84
2021/10/30 12:09:17;;;;;;;9.60;7.07;;;15.40;99.90;;;;;;5034014;28;20037;-84
2021/10/30 12:11:44;;;;;;;4.20;3.47;;;15.40;99.90;;;;;;5031316;28;20021;-83
2021/10/30 12:14:11;;;;;;;2.90;2.70;;;15.30;99.90;;;;;;5054004;28;20432;-85
2021/10/30 12:16:38;;;;;;;2.88;2.63;;;15.30;99.90;;;;;;5055234;28;20073;-88
2021/10/30 12:19:05;;;;;;;2.60;2.38;;;15.30;99.90;;;;;;5035874;28;20032;-86
2021/10/30 12:21:35;;;;;;;4.68;4.10;;;15.20;99.90;;;;;;5035259;28;20521;-83
2021/10/30 12:24:04;;;;;;;4.85;4.35;;;15.30;99.90;;;;;;5033921;28;20032;-85
2021/10/30 12:26:34;;;;;;;5.68;3.70;;;15.50;99.90;;;;;;5034626;28;20017;-86
2021/10/30 12:29:14;;;;;;;4.35;3.15;;;15.50;99.90;;;;;;5033930;28;20488;-86
2021/10/30 12:31:58;;;;;;;5.95;3.03;;;15.60;99.90;;;;;;5035133;28;20454;-85
2021/10/30 12:34:25;;;;;;;5.13;2.85;;;15.70;99.90;;;;;;5033397;28;20071;-83
2021/10/30 12:36:55;;;;;;;2.55;2.08;;;15.70;99.90;;;;;;5032841;28;20028;-86
2021/10/30 12:39:21;;;;;;;2.58;2.03;;;15.80;99.90;;;;;;5037700;28;20029;-82